CheckWX is a tool to help pilots better visualize weather data.  It is not intended as a substitute for an official pre-flight weather briefing.

07:55:51 UTC

VTUO METAR
Buri Ram Airport
Thailand
Current

56 mins ago

VTUO 150700Z 15008KT 110V190 9999 5000W RA FEW020TCU SCT025 27/26 Q1007 BECMG FM0710 TL0725 8000 -RA
Observed
Sep-15 @ 07:00 UTC
Wind
  • 150° at 8 KTS
Visibility
10,000+ meters
Flight Rules
VFR
Conditions
Rain
Cloud Levels
  • Few at 2,000' AGL
  • Scattered at 2,500' AGL
Temperature
27°C / 81°F
Dewpoint
26°C / 79°F
Heat Index
32°C / 89°F
Humidity
94%
Altimeter
29.73" Hg
Pressure
1006.92 hPa
Previous

2 hours ago

VTUO 150600Z VRB04KT 9999 VCSH FEW020TCU SCT025 32/27 Q1008 TEMPO FM0615 TL0635 5000 RA
Observed
Sep-15 @ 06:00 UTC
Wind
  • Variable at 4 KTS
Visibility
10,000+ meters
Flight Rules
VFR
Cloud Levels
  • Few at 2,000' AGL
  • Scattered at 2,500' AGL
Temperature
32°C / 90°F
Dewpoint
27°C / 81°F
Heat Index
43°C / 109°F
Humidity
75%
Altimeter
29.76" Hg
Pressure
1007.92 hPa
Previous

3 hours ago

VTUO 150500Z 04004KT 350V150 9999 FEW020TCU SCT025 31/27 Q1009 NOSIG
Observed
Sep-15 @ 05:00 UTC
Wind
  • 040° at 4 KTS
Visibility
10,000+ meters
Flight Rules
VFR
Cloud Levels
  • Few at 2,000' AGL
  • Scattered at 2,500' AGL
Temperature
31°C / 88°F
Dewpoint
27°C / 81°F
Heat Index
41°C / 106°F
Humidity
79%
Altimeter
29.79" Hg
Pressure
1008.92 hPa